createdAt,value
2023-03-03T00:02:18.432Z,55.42
2023-03-03T00:04:48.110Z,63.22
2023-03-03T00:07:25.155Z,64.00
2023-03-03T00:09:58.179Z,74.90
2023-03-03T00:12:27.663Z,76.35
2023-03-03T00:15:00.800Z,75.00
2023-03-03T00:17:30.212Z,86.10
2023-03-03T00:19:57.594Z,82.95
2023-03-03T00:22:37.476Z,76.25
2023-03-03T00:25:19.561Z,74.78
2023-03-03T00:27:46.993Z,77.75
2023-03-03T00:30:32.223Z,90.47
2023-03-03T00:32:58.831Z,90.47
2023-03-03T00:35:38.640Z,83.97
2023-03-03T00:38:19.122Z,93.32
2023-03-03T00:40:47.413Z,94.13
2023-03-03T00:43:24.664Z,105.65
2023-03-03T00:45:56.495Z,103.32
2023-03-03T00:48:39.386Z,95.50
2023-03-03T00:51:23.790Z,94.13
2023-03-03T00:53:59.299Z,90.25
2023-03-03T00:56:27.214Z,99.50
2023-03-03T00:58:57.022Z,98.53
2023-03-03T01:01:32.263Z,103.70
2023-03-03T01:03:58.985Z,103.93
2023-03-03T01:06:25.659Z,100.28
2023-03-03T01:08:52.302Z,99.72
2023-03-03T01:11:25.976Z,102.32
2023-03-03T01:14:00.930Z,97.60
2023-03-03T01:16:28.523Z,102.03
2023-03-03T01:18:58.381Z,110.07
2023-03-03T01:21:26.916Z,103.85
2023-03-03T01:23:57.982Z,94.85
2023-03-03T01:26:27.512Z,99.85
2023-03-03T01:28:56.774Z,96.93
2023-03-03T01:31:31.616Z,94.18
2023-03-03T01:34:02.141Z,92.47
2023-03-03T01:36:31.645Z,90.90
2023-03-03T01:39:03.319Z,86.97
2023-03-03T01:41:33.243Z,82.88
2023-03-03T01:44:05.010Z,85.78
2023-03-03T01:47:03.213Z,88.22
2023-03-03T01:49:36.646Z,81.18
2023-03-03T01:52:12.759Z,82.10
2023-03-03T01:54:48.683Z,79.00
2023-03-03T01:57:31.805Z,73.05
2023-03-03T02:00:03.117Z,72.25
2023-03-03T02:02:51.809Z,77.57
2023-03-03T02:05:21.034Z,72.90
2023-03-03T02:07:51.456Z,71.35
2023-03-03T02:10:21.466Z,73.88
2023-03-03T02:12:58.618Z,78.13
2023-03-03T02:15:32.108Z,68.43
2023-03-03T02:18:19.873Z,70.15
2023-03-03T02:21:03.621Z,64.28
2023-03-03T02:23:38.097Z,68.57
2023-03-03T02:26:15.237Z,65.80
2023-03-03T02:28:44.632Z,60.47
2023-03-03T02:31:18.589Z,66.20
2023-03-03T02:33:52.765Z,54.15
2023-03-03T02:36:35.013Z,52.58
2023-03-03T02:39:26.496Z,54.22
2023-03-03T02:42:01.603Z,48.50
2023-03-03T02:44:40.060Z,48.15
2023-03-03T02:47:09.465Z,51.35
2023-03-03T02:49:37.082Z,55.92
2023-03-03T02:52:07.294Z,53.38
2023-03-03T02:54:37.030Z,59.15
2023-03-03T02:57:05.236Z,53.42
2023-03-03T02:59:39.332Z,49.60
2023-03-03T03:02:15.723Z,54.13
2023-03-03T03:04:49.829Z,47.10
2023-03-03T03:07:23.840Z,50.95
2023-03-03T03:09:50.457Z,46.78
2023-03-03T03:12:20.701Z,52.30
2023-03-03T03:14:52.841Z,49.90
2023-03-03T03:17:19.858Z,49.30
2023-03-03T03:19:52.217Z,61.95
2023-03-03T03:22:19.834Z,57.35
2023-03-03T03:24:49.167Z,59.50
2023-03-03T03:27:15.899Z,52.08
2023-03-03T03:29:44.033Z,46.80
2023-03-03T03:32:18.580Z,43.97
2023-03-03T03:37:16.979Z,41.47
2023-03-03T03:39:47.702Z,49.45
2023-03-03T03:42:16.995Z,43.10
2023-03-03T03:44:43.643Z,45.72
2023-03-03T03:47:10.285Z,45.65
2023-03-03T03:49:40.483Z,44.10
2023-03-03T03:52:08.597Z,41.45
2023-03-03T03:54:38.500Z,38.95
2023-03-03T03:57:07.414Z,36.10
2023-03-03T03:59:34.679Z,41.80
2023-03-03T04:02:01.496Z,43.75
2023-03-03T04:04:37.775Z,40.58
2023-03-03T04:07:07.595Z,45.55
2023-03-03T04:09:34.788Z,41.35
2023-03-03T04:12:03.567Z,45.35
2023-03-03T04:14:33.994Z,49.00
2023-03-03T04:17:01.566Z,43.15
2023-03-03T04:19:32.893Z,38.78
2023-03-03T04:22:00.114Z,40.72
2023-03-03T04:24:30.116Z,38.60
2023-03-03T04:27:00.878Z,38.13
2023-03-03T04:29:27.698Z,44.72
2023-03-03T04:31:55.085Z,41.40
2023-03-03T04:34:23.418Z,40.25
2023-03-03T04:36:52.105Z,38.85
2023-03-03T04:39:21.502Z,40.45
2023-03-03T04:41:50.488Z,40.92
2023-03-03T04:44:22.649Z,49.63
2023-03-03T04:46:49.510Z,46.92
2023-03-03T04:49:21.832Z,49.65
2023-03-03T04:51:50.947Z,55.83
2023-03-03T04:54:20.410Z,49.58
2023-03-03T04:56:47.699Z,46.40
2023-03-03T04:59:18.905Z,51.25
2023-03-03T05:01:54.701Z,55.58
2023-03-03T05:04:21.427Z,49.67
2023-03-03T05:06:49.029Z,47.80
2023-03-03T05:09:15.614Z,45.70
2023-03-03T05:11:42.232Z,44.45
2023-03-03T05:14:12.638Z,41.17
2023-03-03T05:16:39.208Z,45.08
2023-03-03T05:19:05.939Z,37.58
2023-03-03T05:21:32.574Z,45.33
2023-03-03T05:23:59.253Z,43.28
2023-03-03T05:26:36.143Z,43.70
2023-03-03T05:29:02.994Z,48.45
2023-03-03T05:31:29.810Z,48.05
2023-03-03T05:33:56.473Z,44.40
2023-03-03T05:36:23.103Z,46.13
2023-03-03T05:38:49.789Z,39.67
2023-03-03T05:41:16.730Z,47.22
2023-03-03T05:43:43.582Z,40.53
2023-03-03T05:46:10.216Z,40.28
2023-03-03T05:48:39.349Z,38.72
2023-03-03T05:51:06.290Z,42.92
2023-03-03T05:53:32.933Z,41.17
2023-03-03T05:55:59.602Z,39.35
2023-03-03T05:58:26.315Z,45.88
2023-03-03T06:00:52.855Z,42.33
2023-03-03T06:03:19.504Z,49.88
2023-03-03T06:05:46.085Z,43.38
2023-03-03T06:08:12.945Z,43.63
2023-03-03T06:10:41.784Z,48.25
2023-03-03T06:13:10.773Z,42.35
2023-03-03T06:15:37.805Z,47.33
2023-03-03T06:18:05.053Z,43.78
2023-03-03T06:20:31.924Z,43.22
2023-03-03T06:22:58.923Z,47.38
2023-03-03T06:25:25.556Z,50.58
2023-03-03T06:27:52.251Z,52.08
2023-03-03T06:30:19.001Z,47.58
2023-03-03T06:32:46.008Z,44.65
2023-03-03T06:35:13.184Z,44.67
2023-03-03T06:37:39.977Z,41.38
2023-03-03T06:40:07.241Z,44.67
2023-03-03T06:42:33.929Z,48.67
2023-03-03T06:45:00.480Z,48.97
2023-03-03T06:47:27.105Z,49.60
2023-03-03T06:49:53.677Z,45.75
2023-03-03T06:52:26.130Z,54.47
2023-03-03T06:54:59.033Z,56.45
2023-03-03T06:57:28.828Z,57.75
2023-03-03T06:59:59.601Z,54.42
2023-03-03T07:02:26.276Z,49.10
2023-03-03T07:04:55.814Z,46.47
2023-03-03T07:07:26.368Z,48.42
2023-03-03T07:09:56.808Z,43.65
2023-03-03T07:12:29.698Z,45.88
2023-03-03T07:15:12.159Z,41.85
2023-03-03T07:17:45.554Z,44.47
2023-03-03T07:20:32.661Z,47.50
2023-03-03T07:23:00.005Z,50.08
2023-03-03T07:25:32.068Z,52.88
2023-03-03T07:28:07.843Z,47.17
2023-03-03T07:30:34.517Z,54.58
2023-03-03T07:33:01.078Z,49.78
2023-03-03T07:35:43.703Z,54.38
2023-03-03T07:38:41.378Z,56.00
2023-03-03T07:41:20.658Z,54.75
2023-03-03T07:43:54.603Z,69.78
2023-03-03T07:46:43.602Z,59.55
2023-03-03T07:49:36.602Z,64.70
2023-03-03T07:52:21.085Z,76.65
2023-03-03T07:54:47.773Z,90.15
2023-03-03T07:57:19.249Z,89.70
2023-03-03T08:00:29.015Z,82.32
2023-03-03T08:03:00.462Z,72.10
2023-03-03T08:05:31.206Z,67.40
2023-03-03T08:08:30.972Z,76.22
2023-03-03T08:10:59.753Z,68.93
2023-03-03T08:13:39.703Z,67.72
2023-03-03T08:16:09.194Z,58.35
2023-03-03T08:18:39.638Z,61.65
2023-03-03T08:21:15.498Z,52.55
2023-03-03T08:23:43.258Z,47.35
2023-03-03T08:26:10.123Z,44.42
2023-03-03T08:28:36.655Z,44.22
2023-03-03T08:31:16.814Z,47.42
2023-03-03T08:33:47.113Z,44.47
2023-03-03T08:36:14.459Z,45.42
2023-03-03T08:38:42.284Z,49.25
2023-03-03T08:41:09.060Z,65.90
2023-03-03T08:43:38.043Z,64.50
2023-03-03T08:46:06.521Z,56.25
2023-03-03T08:48:34.163Z,55.00
2023-03-03T08:51:00.961Z,55.20
2023-03-03T08:53:28.814Z,51.13
2023-03-03T08:55:55.569Z,54.08
2023-03-03T08:58:34.756Z,43.47
2023-03-03T09:01:02.488Z,44.75
2023-03-03T09:03:29.804Z,49.90
2023-03-03T09:05:56.479Z,44.05
2023-03-03T09:08:23.362Z,40.67
2023-03-03T09:10:52.897Z,44.35
2023-03-03T09:13:20.238Z,37.97
2023-03-03T09:15:47.692Z,43.22
2023-03-03T09:18:19.963Z,49.15
2023-03-03T09:23:34.647Z,37.22
2023-03-03T09:26:22.776Z,40.67
2023-03-03T09:28:49.384Z,38.83
2023-03-03T09:31:40.509Z,37.65
2023-03-03T09:34:36.042Z,42.45
2023-03-03T09:37:28.771Z,39.85
2023-03-03T09:40:00.213Z,37.22
2023-03-03T09:42:54.580Z,40.13
2023-03-03T09:45:34.830Z,36.35
2023-03-03T09:48:22.379Z,34.10
2023-03-03T09:50:59.430Z,34.58
2023-03-03T09:53:50.793Z,35.58
2023-03-03T09:56:31.198Z,36.17
2023-03-03T09:59:20.294Z,38.40
2023-03-03T10:02:19.174Z,36.83
2023-03-03T10:05:09.281Z,36.88
2023-03-03T10:07:45.750Z,32.20
2023-03-03T10:10:18.649Z,32.70
2023-03-03T10:13:12.794Z,32.70
2023-03-03T10:15:42.177Z,31.75
2023-03-03T10:18:32.252Z,34.88
2023-03-03T10:21:17.050Z,31.45
2023-03-03T10:23:58.842Z,32.85
2023-03-03T10:26:49.099Z,36.92
2023-03-03T10:29:37.394Z,33.35
2023-03-03T10:32:25.676Z,33.83
2023-03-03T10:35:02.911Z,35.25
2023-03-03T10:37:51.408Z,34.63
2023-03-03T10:40:41.915Z,38.17
2023-03-03T10:43:19.728Z,32.08
2023-03-03T10:46:01.684Z,32.75
2023-03-03T10:48:56.005Z,36.05
2023-03-03T10:51:31.535Z,31.67
2023-03-03T10:54:33.368Z,37.58
2023-03-03T10:57:15.156Z,35.83
2023-03-03T11:00:05.305Z,33.13
2023-03-03T11:03:19.052Z,36.30
2023-03-03T11:05:51.707Z,31.50
2023-03-03T11:08:33.650Z,33.08
2023-03-03T11:11:12.132Z,33.28
2023-03-03T11:13:56.488Z,29.33
2023-03-03T11:16:40.831Z,33.83
2023-03-03T11:19:35.615Z,34.38
2023-03-03T11:22:29.955Z,32.47
2023-03-03T11:25:20.330Z,35.30
2023-03-03T11:28:25.977Z,32.13
2023-03-03T11:31:06.249Z,34.22
2023-03-03T11:34:01.016Z,33.22
2023-03-03T11:36:36.563Z,31.42
2023-03-03T11:39:08.786Z,33.03
2023-03-03T11:41:43.243Z,30.02
2023-03-03T11:44:34.739Z,30.75
2023-03-03T11:47:19.964Z,33.10
2023-03-03T11:50:05.036Z,29.70
2023-03-03T11:53:07.301Z,28.40
2023-03-03T11:55:37.709Z,30.10
2023-03-03T11:58:14.203Z,32.65
2023-03-03T12:01:04.068Z,32.30
2023-03-03T12:03:41.129Z,30.95
2023-03-03T12:06:19.886Z,34.33
2023-03-03T12:09:01.266Z,35.58
2023-03-03T12:11:39.210Z,37.13
2023-03-03T12:14:22.607Z,33.67
2023-03-03T12:16:58.755Z,33.38
2023-03-03T12:19:49.442Z,32.05
2023-03-03T12:22:29.469Z,29.98
2023-03-03T12:25:11.136Z,32.03
2023-03-03T12:28:19.826Z,35.13
2023-03-03T12:31:16.330Z,29.88
2023-03-03T12:33:59.378Z,33.83
2023-03-03T12:36:34.714Z,28.95
2023-03-03T12:39:34.677Z,32.92
2023-03-03T12:42:39.625Z,32.17
2023-03-03T12:45:31.893Z,30.13
2023-03-03T12:48:18.426Z,32.47
2023-03-03T12:51:07.490Z,30.30
2023-03-03T12:53:54.201Z,35.97
2023-03-03T12:56:53.113Z,31.23
2023-03-03T12:59:46.297Z,34.88
2023-03-03T13:02:38.568Z,31.50
2023-03-03T13:05:44.010Z,30.55
2023-03-03T13:08:31.174Z,31.63
2023-03-03T13:11:42.256Z,31.98
2023-03-03T13:14:30.289Z,33.05
2023-03-03T13:17:08.864Z,33.60
2023-03-03T13:20:00.000Z,32.20
2023-03-03T13:22:49.033Z,29.27
2023-03-03T13:25:44.310Z,28.15
2023-03-03T13:28:36.668Z,31.55
2023-03-03T13:31:16.836Z,32.58
2023-03-03T13:33:56.399Z,26.80
2023-03-03T13:36:30.644Z,28.13
2023-03-03T13:39:16.509Z,26.08
2023-03-03T13:41:51.545Z,25.38
2023-03-03T13:44:44.764Z,29.60
2023-03-03T13:47:45.812Z,26.38
2023-03-03T13:50:39.667Z,29.48
2023-03-03T13:53:32.469Z,27.42
2023-03-03T13:56:39.810Z,22.77
2023-03-03T13:59:44.444Z,23.48
2023-03-03T14:02:26.364Z,25.73
2023-03-03T14:05:01.081Z,26.00
2023-03-03T14:07:47.420Z,24.00
2023-03-03T14:10:25.271Z,23.48
2023-03-03T14:13:06.315Z,20.85
2023-03-03T14:15:55.677Z,22.52
2023-03-03T14:18:34.397Z,22.05
2023-03-03T14:21:11.585Z,21.25
2023-03-03T14:23:50.077Z,20.15
2023-03-03T14:26:16.709Z,19.85
2023-03-03T14:28:45.766Z,20.40
2023-03-03T14:31:36.022Z,20.25
2023-03-03T14:34:15.567Z,18.92
2023-03-03T14:36:43.831Z,15.98
2023-03-03T14:39:39.643Z,18.05
2023-03-03T14:42:15.123Z,17.17
2023-03-03T14:44:55.338Z,16.67
2023-03-03T14:47:27.443Z,17.45
2023-03-03T14:49:56.512Z,20.15
2023-03-03T14:52:35.528Z,17.20
2023-03-03T14:55:23.269Z,16.45
2023-03-03T14:57:51.467Z,16.17
2023-03-03T15:00:24.118Z,20.17
2023-03-03T15:03:03.081Z,19.10
2023-03-03T15:05:31.460Z,21.63
2023-03-03T15:08:13.453Z,17.70
2023-03-03T15:10:45.132Z,19.98
2023-03-03T15:13:30.743Z,17.52
2023-03-03T15:16:00.246Z,14.93
2023-03-03T15:18:34.923Z,19.98
2023-03-03T15:21:14.998Z,18.63
2023-03-03T15:23:59.024Z,19.35
2023-03-03T15:26:51.749Z,19.40
2023-03-03T15:29:47.034Z,14.75
2023-03-03T15:32:19.672Z,14.68
2023-03-03T15:35:02.218Z,18.02
2023-03-03T15:37:42.290Z,15.50
2023-03-03T15:40:42.266Z,14.77
2023-03-03T15:43:25.208Z,13.57
2023-03-03T15:46:15.781Z,14.40
2023-03-03T15:49:22.633Z,14.88
2023-03-03T15:52:23.379Z,14.45
2023-03-03T15:54:59.273Z,15.50
2023-03-03T15:57:31.508Z,13.93
2023-03-03T16:02:27.909Z,12.07
2023-03-03T16:05:04.051Z,16.75
2023-03-03T16:07:41.367Z,15.27
2023-03-03T16:10:22.319Z,14.80
2023-03-03T16:12:58.822Z,13.43
2023-03-03T16:15:45.915Z,15.63
2023-03-03T16:18:44.046Z,12.85
2023-03-03T16:21:34.544Z,14.50
2023-03-03T16:24:24.033Z,15.40
2023-03-03T16:26:54.485Z,14.95
2023-03-03T16:29:42.456Z,15.07
2023-03-03T16:32:19.726Z,16.85
2023-03-03T16:35:13.866Z,15.27
2023-03-03T16:38:01.982Z,13.73
2023-03-03T16:41:04.612Z,14.80
2023-03-03T16:44:00.727Z,14.80
2023-03-03T16:46:38.866Z,15.93
2023-03-03T16:49:33.156Z,16.33
2023-03-03T16:52:14.703Z,12.88
2023-03-03T16:55:02.610Z,12.15
2023-03-03T16:57:51.363Z,13.02
2023-03-03T17:00:27.847Z,12.95
2023-03-03T17:03:15.707Z,13.20
2023-03-03T17:05:48.404Z,15.23
2023-03-03T17:08:44.761Z,15.63
2023-03-03T17:11:14.126Z,14.38
2023-03-03T17:13:55.525Z,15.57
2023-03-03T17:16:28.185Z,13.50
2023-03-03T17:19:03.453Z,18.70
2023-03-03T17:21:53.082Z,13.93
2023-03-03T17:24:44.345Z,21.60
2023-03-03T17:27:43.165Z,24.92
2023-03-03T17:30:35.470Z,28.88
2023-03-03T17:33:24.088Z,34.10
2023-03-03T17:36:22.430Z,28.25
2023-03-03T17:39:05.524Z,26.90
2023-03-03T17:41:34.487Z,22.20
2023-03-03T17:44:19.561Z,24.85
2023-03-03T17:46:54.149Z,27.27
2023-03-03T17:49:36.247Z,23.08
2023-03-03T17:52:26.872Z,20.35
2023-03-03T17:55:09.139Z,25.13
2023-03-03T17:58:06.952Z,24.08
2023-03-03T18:00:56.291Z,24.55
2023-03-03T18:04:00.125Z,27.98
2023-03-03T18:06:59.397Z,27.92
2023-03-03T18:09:42.210Z,27.15
2023-03-03T18:12:48.988Z,25.45
2023-03-03T18:15:26.065Z,31.63
2023-03-03T18:18:21.298Z,27.52
2023-03-03T18:20:57.613Z,29.65
2023-03-03T18:23:41.353Z,30.45
2023-03-03T18:26:34.987Z,30.02
2023-03-03T18:29:19.414Z,30.00
2023-03-03T18:31:48.200Z,27.05
2023-03-03T18:34:20.907Z,23.42
2023-03-03T18:37:15.023Z,23.70
2023-03-03T18:39:48.164Z,25.75
2023-03-03T18:42:30.378Z,22.45
2023-03-03T18:45:20.183Z,26.88
2023-03-03T18:48:02.157Z,37.45
2023-03-03T18:50:39.438Z,26.73
2023-03-03T18:53:18.044Z,31.27
2023-03-03T18:55:57.966Z,25.23
2023-03-03T18:58:37.295Z,28.83
2023-03-03T19:01:34.696Z,28.67
2023-03-03T19:04:19.596Z,26.85
2023-03-03T19:06:49.566Z,29.15
2023-03-03T19:09:41.801Z,29.40
2023-03-03T19:12:10.415Z,29.95
2023-03-03T19:14:47.290Z,32.92
2023-03-03T19:17:23.232Z,30.60
2023-03-03T19:20:14.019Z,28.33
2023-03-03T19:23:05.562Z,26.92
2023-03-03T19:25:32.619Z,27.88
2023-03-03T19:28:26.470Z,26.52
2023-03-03T19:31:13.185Z,27.35
2023-03-03T19:34:03.754Z,27.05
2023-03-03T19:36:45.639Z,27.83
2023-03-03T19:39:35.350Z,26.42
2023-03-03T19:42:19.653Z,25.42
2023-03-03T19:45:17.861Z,32.20
2023-03-03T19:48:14.069Z,29.48
2023-03-03T19:50:54.338Z,28.60
2023-03-03T19:53:43.352Z,30.48
2023-03-03T19:56:15.698Z,31.00
2023-03-03T20:01:48.140Z,24.90
2023-03-03T20:04:39.781Z,26.25
2023-03-03T20:07:12.362Z,27.38
2023-03-03T20:09:49.620Z,32.75
2023-03-03T20:12:53.163Z,30.02
2023-03-03T20:15:37.606Z,32.03
2023-03-03T20:18:47.612Z,29.63
2023-03-03T20:21:23.750Z,29.80
2023-03-03T20:24:18.685Z,27.55
2023-03-03T20:27:09.441Z,29.65
2023-03-03T20:29:54.569Z,29.85
2023-03-03T20:32:41.524Z,28.48
2023-03-03T20:35:23.580Z,32.88
2023-03-03T20:38:14.574Z,30.65
2023-03-03T20:40:48.061Z,37.67
2023-03-03T20:43:32.594Z,29.98
2023-03-03T20:46:09.516Z,32.65
2023-03-03T20:48:52.186Z,28.80
2023-03-03T20:51:40.795Z,29.92
2023-03-03T20:54:31.457Z,29.05
2023-03-03T20:57:09.337Z,30.30
2023-03-03T20:59:56.049Z,33.40
2023-03-03T21:02:38.000Z,34.22
2023-03-03T21:05:28.823Z,32.95
2023-03-03T21:08:03.188Z,33.90
2023-03-03T21:10:37.774Z,29.27
2023-03-03T21:13:33.496Z,31.20
2023-03-03T21:16:06.194Z,29.98
2023-03-03T21:18:37.850Z,28.90
2023-03-03T21:21:04.853Z,28.13
2023-03-03T21:23:31.468Z,30.20
2023-03-03T21:26:02.461Z,32.88
2023-03-03T21:28:32.352Z,30.30
2023-03-03T21:31:46.373Z,31.50
2023-03-03T21:34:34.709Z,32.88
2023-03-03T21:37:07.542Z,31.80
2023-03-03T21:39:39.830Z,33.10
2023-03-03T21:44:50.693Z,28.48
2023-03-03T21:47:30.303Z,30.58
2023-03-03T21:49:56.874Z,27.48
2023-03-03T21:52:23.487Z,30.42
2023-03-03T21:54:51.734Z,33.42
2023-03-03T21:57:18.529Z,32.38
2023-03-03T21:59:45.170Z,27.98
2023-03-03T22:02:13.506Z,31.20
2023-03-03T22:04:40.747Z,30.55
2023-03-03T22:07:07.865Z,33.22
2023-03-03T22:09:37.432Z,31.20
2023-03-03T22:12:08.006Z,30.73
2023-03-03T22:14:34.690Z,31.55
2023-03-03T22:17:04.764Z,33.20
2023-03-03T22:19:34.344Z,36.25
2023-03-03T22:22:05.342Z,30.10
2023-03-03T22:24:31.961Z,29.52
2023-03-03T22:27:01.903Z,32.90
2023-03-03T22:29:28.743Z,31.25
2023-03-03T22:31:57.440Z,32.58
2023-03-03T22:34:28.512Z,30.27
2023-03-03T22:36:56.398Z,31.83
2023-03-03T22:39:23.508Z,33.80
2023-03-03T22:41:50.125Z,32.20
2023-03-03T22:44:19.161Z,33.35
2023-03-03T22:46:52.080Z,34.85
2023-03-03T22:49:21.105Z,27.40
2023-03-03T22:51:49.036Z,23.73
2023-03-03T22:54:19.529Z,27.27
2023-03-03T22:56:46.718Z,26.60
2023-03-03T22:59:13.306Z,19.13
2023-03-03T23:01:43.273Z,17.45
2023-03-03T23:04:12.320Z,20.60
2023-03-03T23:06:42.273Z,21.45
2023-03-03T23:09:11.358Z,18.90
2023-03-03T23:11:38.901Z,18.27
2023-03-03T23:14:11.403Z,20.20
2023-03-03T23:16:39.154Z,19.92
2023-03-03T23:19:08.090Z,21.30
2023-03-03T23:21:34.650Z,15.93
2023-03-03T23:24:03.252Z,16.40
2023-03-03T23:26:32.075Z,17.60
2023-03-03T23:29:00.881Z,23.00
2023-03-03T23:31:32.782Z,18.63
2023-03-03T23:34:03.996Z,16.17
2023-03-03T23:36:48.289Z,13.93
2023-03-03T23:39:19.574Z,12.38
2023-03-03T23:41:46.189Z,11.75
2023-03-03T23:44:17.298Z,12.75
2023-03-03T23:46:45.840Z,10.70
2023-03-03T23:49:16.431Z,5.82
2023-03-03T23:51:43.675Z,9.10
2023-03-03T23:54:12.257Z,7.38
2023-03-03T23:56:40.073Z,9.63
2023-03-03T23:59:10.892Z,7.82
